Time;durP1;ratioP1;P1;durP2;ratioP2;P2;SDS_P1;SDS_P2;PMS_P1;PMS_P2;Temp;Humidity;BMP_temperature;BMP_pressure;BME280_temperature;BME280_humidity;BME280_pressure;Samples;Min_cycle;Max_cycle;Signal;HPM_P1;HPM_P2
2021/04/12 01:31:31;;;;;;;4.73;3.90;;;4.10;99.90;;;;;;5878602;22;20595;-82
2021/04/12 04:00:27;;;;;;;6.80;6.10;;;2.30;99.90;;;;;;5888574;22;20502;-83
2021/04/12 04:03:15;;;;;;;9.23;6.50;;;2.20;99.90;;;;;;5045099;28;20463;-80
2021/04/12 04:05:54;;;;;;;7.50;6.17;;;2.20;99.90;;;;;;5050132;28;20469;-80
2021/04/12 04:09:06;;;;;;;12.10;6.73;;;2.20;99.90;;;;;;5047514;28;20555;-80
2021/04/12 04:11:52;;;;;;;9.03;6.73;;;2.00;99.90;;;;;;5040085;28;20458;-79
2021/04/12 04:14:37;;;;;;;8.00;7.20;;;2.10;99.90;;;;;;5035474;28;20554;-80
2021/04/12 04:17:49;;;;;;;7.53;6.73;;;2.10;99.90;;;;;;5025822;28;20519;-81
2021/04/12 04:20:29;;;;;;;9.83;7.23;;;2.00;99.90;;;;;;4972486;28;20474;-80
2021/04/12 04:23:14;;;;;;;9.43;7.00;;;2.00;99.90;;;;;;5046310;28;20445;-79
2021/04/12 04:26:01;;;;;;;8.00;6.53;;;2.00;99.90;;;;;;5028825;28;20544;-80
2021/04/12 04:28:46;;;;;;;6.97;6.00;;;2.00;99.90;;;;;;5038139;28;20444;-80
2021/04/12 04:31:42;;;;;;;8.53;7.37;;;1.90;99.90;;;;;;5037255;28;20486;-83
2021/04/12 04:34:31;;;;;;;9.10;7.10;;;2.00;99.90;;;;;;5051579;28;20466;-79
2021/04/12 04:37:28;;;;;;;9.40;7.80;;;2.00;99.90;;;;;;5034736;28;20560;-80
2021/04/12 04:40:06;;;;;;;9.13;6.77;;;1.90;99.90;;;;;;5040356;28;20469;-84
2021/04/12 04:43:00;;;;;;;8.73;6.80;;;2.00;99.90;;;;;;5030739;28;20472;-80
2021/04/12 04:45:47;;;;;;;8.07;6.90;;;2.00;99.90;;;;;;5029902;28;20483;-79
2021/04/12 04:48:45;;;;;;;10.43;6.63;;;1.90;99.90;;;;;;5021881;28;20528;-78
2021/04/12 04:51:40;;;;;;;9.63;7.43;;;2.00;99.90;;;;;;5022769;28;20536;-81
2021/04/12 04:54:27;;;;;;;10.90;7.30;;;2.00;99.90;;;;;;5032548;28;20490;-80
2021/04/12 04:57:11;;;;;;;13.50;9.20;;;2.00;99.90;;;;;;5023364;28;20583;-79
2021/04/12 05:00:23;;;;;;;14.20;10.30;;;2.00;99.90;;;;;;5019511;28;20809;-79
2021/04/12 05:03:30;;;;;;;15.70;10.37;;;2.10;99.90;;;;;;5004545;28;20465;-81
2021/04/12 05:06:09;;;;;;;10.47;7.23;;;2.00;99.90;;;;;;5012950;28;20471;-80
2021/04/12 05:09:10;;;;;;;12.67;9.70;;;1.90;99.90;;;;;;5027366;28;20531;-83
2021/04/12 05:12:27;;;;;;;11.93;8.33;;;1.90;99.90;;;;;;5004793;28;20496;-78
2021/04/12 05:19:30;;;;;;;10.90;8.63;;;1.90;99.90;;;;;;5031015;28;20436;-79
2021/04/12 05:26:04;;;;;;;12.30;9.37;;;1.90;99.90;;;;;;5012212;28;20473;-80
2021/04/12 05:28:56;;;;;;;14.77;10.80;;;1.90;99.90;;;;;;5026956;28;20451;-80
2021/04/12 05:31:44;;;;;;;13.83;10.77;;;1.90;99.90;;;;;;5009832;28;20539;-79
2021/04/12 05:34:29;;;;;;;15.23;11.73;;;1.90;99.90;;;;;;5028205;28;21124;-79
2021/04/12 05:37:15;;;;;;;19.33;11.03;;;1.90;99.90;;;;;;5030053;28;20567;-82
2021/04/12 05:40:02;;;;;;;19.77;12.87;;;1.90;99.90;;;;;;5011615;28;20961;-82
2021/04/12 05:42:44;;;;;;;14.70;11.23;;;1.90;99.90;;;;;;5029682;28;20896;-83
2021/04/12 05:45:46;;;;;;;18.20;13.03;;;1.90;99.90;;;;;;5023707;28;20475;-81
2021/04/12 05:48:41;;;;;;;17.77;12.57;;;1.90;99.90;;;;;;5024299;28;20448;-81
2021/04/12 05:51:28;;;;;;;20.40;13.27;;;1.80;99.90;;;;;;5025083;28;20459;-79
2021/04/12 05:54:29;;;;;;;19.30;12.13;;;1.80;99.90;;;;;;5004419;28;20511;-80
2021/04/12 05:57:43;;;;;;;21.80;15.30;;;2.00;99.90;;;;;;5020457;28;20464;-79
2021/04/12 06:00:20;;;;;;;25.90;14.30;;;2.00;99.90;;;;;;4960978;29;20530;-80
2021/04/12 06:03:18;;;;;;;25.53;15.57;;;1.90;99.90;;;;;;5009469;28;20526;-81
2021/04/12 06:06:47;;;;;;;25.60;16.33;;;1.90;99.90;;;;;;5017592;28;20469;-81
2021/04/12 06:09:39;;;;;;;17.13;12.83;;;2.10;99.90;;;;;;5017967;28;20487;-80
2021/04/12 06:12:43;;;;;;;28.27;14.13;;;1.90;99.90;;;;;;5019595;28;20475;-84
2021/04/12 06:15:38;;;;;;;20.47;13.77;;;1.90;99.90;;;;;;4998020;28;20482;-80
2021/04/12 06:18:49;;;;;;;20.03;14.17;;;1.90;99.90;;;;;;5013130;28;20527;-79
2021/04/12 06:21:45;;;;;;;20.30;13.63;;;1.80;99.90;;;;;;5014760;28;20820;-81
2021/04/12 06:24:43;;;;;;;28.67;17.73;;;1.80;99.90;;;;;;5005392;28;20439;-81
2021/04/12 06:27:44;;;;;;;24.70;18.02;;;2.00;99.90;;;;;;4998100;28;20481;-85
2021/04/12 06:30:33;;;;;;;21.33;14.97;;;2.10;99.90;;;;;;5022994;28;20200;-86
2021/04/12 06:33:29;;;;;;;17.10;13.87;;;2.10;99.90;;;;;;5010929;28;20450;-82
2021/04/12 06:36:20;;;;;;;18.77;13.83;;;2.20;99.90;;;;;;5018480;28;20562;-82
2021/04/12 06:39:12;;;;;;;20.63;14.10;;;2.20;99.90;;;;;;5022843;28;20456;-83
2021/04/12 06:42:27;;;;;;;16.13;13.00;;;2.30;99.90;;;;;;5007361;28;20469;-82
2021/04/12 06:45:35;;;;;;;23.73;15.10;;;2.30;99.90;;;;;;5017449;28;20444;-81
2021/04/12 06:48:44;;;;;;;18.50;13.73;;;2.30;99.90;;;;;;5019673;28;20846;-82
2021/04/12 06:51:56;;;;;;;17.87;11.47;;;2.40;99.90;;;;;;5024821;28;20484;-83
2021/04/12 06:54:52;;;;;;;21.53;13.47;;;2.40;99.90;;;;;;4987316;28;20479;-84
2021/04/12 06:57:53;;;;;;;27.87;14.87;;;2.40;99.90;;;;;;5015090;28;20460;-82
2021/04/12 07:00:59;;;;;;;19.30;14.50;;;2.60;99.90;;;;;;5020216;28;20462;-83
2021/04/12 07:04:03;;;;;;;20.10;13.83;;;2.70;99.90;;;;;;5023901;28;20455;-82
2021/04/12 07:06:41;;;;;;;18.10;13.73;;;2.60;99.90;;;;;;5028566;28;20463;-82
2021/04/12 07:09:40;;;;;;;21.07;13.07;;;2.50;99.90;;;;;;5022025;28;20510;-82
2021/04/12 07:12:31;;;;;;;18.10;11.63;;;2.60;99.90;;;;;;5007665;28;20464;-82
2021/04/12 07:15:37;;;;;;;15.30;11.13;;;2.50;99.90;;;;;;5002367;28;20468;-82
2021/04/12 07:18:45;;;;;;;20.27;13.10;;;2.70;99.90;;;;;;5013424;28;20536;-83
2021/04/12 07:21:44;;;;;;;13.33;11.50;;;2.70;99.90;;;;;;5015404;28;20491;-82
2021/04/12 07:24:51;;;;;;;13.03;10.87;;;2.80;99.90;;;;;;5019458;28;20458;-81
2021/04/12 07:27:56;;;;;;;17.83;12.37;;;2.70;99.90;;;;;;5014113;28;20466;-80
2021/04/12 07:30:51;;;;;;;18.97;13.37;;;2.60;99.90;;;;;;4992016;28;20524;-82
2021/04/12 07:34:07;;;;;;;19.80;12.53;;;2.70;99.90;;;;;;5015291;28;20468;-82
2021/04/12 07:37:12;;;;;;;19.67;13.10;;;2.70;99.90;;;;;;5017427;28;20479;-82
2021/04/12 07:40:22;;;;;;;18.60;13.97;;;2.90;99.90;;;;;;5013878;28;20456;-80
2021/04/12 07:43:34;;;;;;;22.03;12.60;;;2.90;99.90;;;;;;5017456;28;20456;-81
2021/04/12 07:47:02;;;;;;;16.33;13.07;;;2.80;99.90;;;;;;5026142;28;20485;-81
2021/04/12 07:50:04;;;;;;;23.47;14.93;;;2.80;99.90;;;;;;5025517;28;21114;-82
2021/04/12 07:53:20;;;;;;;17.80;13.17;;;3.00;99.90;;;;;;5025030;28;20466;-81
2021/04/12 07:56:22;;;;;;;15.48;13.15;;;3.00;99.90;;;;;;5017376;28;20529;-82
2021/04/12 07:59:32;;;;;;;17.37;12.20;;;2.70;99.90;;;;;;5025146;28;20207;-83
2021/04/12 08:02:29;;;;;;;14.97;11.97;;;3.00;99.90;;;;;;5000097;28;20463;-81
2021/04/12 08:05:44;;;;;;;26.90;12.30;;;3.20;99.90;;;;;;5019236;28;20477;-84
2021/04/12 08:08:42;;;;;;;16.97;11.63;;;3.00;99.90;;;;;;4968724;28;20530;-83
2021/04/12 08:11:56;;;;;;;18.23;12.00;;;3.10;99.90;;;;;;4971257;28;20443;-87
2021/04/12 08:15:22;;;;;;;14.63;12.47;;;3.10;99.90;;;;;;5024194;28;20477;-86
2021/04/12 08:18:48;;;;;;;18.10;13.03;;;3.20;99.90;;;;;;5035616;28;20447;-84
2021/04/12 08:22:01;;;;;;;16.37;12.60;;;3.10;99.90;;;;;;4954580;29;20453;-90
2021/04/12 08:25:08;;;;;;;14.60;10.67;;;3.30;99.90;;;;;;5030093;28;20428;-88
2021/04/12 08:28:17;;;;;;;12.63;10.10;;;3.20;99.90;;;;;;4976965;28;20544;-84
2021/04/12 08:31:34;;;;;;;14.00;10.70;;;3.20;99.90;;;;;;5021023;28;20543;-85
2021/04/12 08:34:47;;;;;;;13.40;10.00;;;2.90;99.90;;;;;;5019573;28;20451;-82
2021/04/12 08:38:05;;;;;;;14.00;11.20;;;3.00;99.90;;;;;;5024495;28;20478;-83
2021/04/12 08:41:17;;;;;;;15.03;9.00;;;3.20;99.90;;;;;;5017079;28;20452;-83
2021/04/12 08:44:22;;;;;;;12.30;9.40;;;3.50;99.90;;;;;;5038545;28;20482;-82
2021/04/12 08:47:27;;;;;;;12.30;8.30;;;3.80;99.40;;;;;;5029916;28;20447;-82
2021/04/12 08:50:29;;;;;;;9.73;7.50;;;4.10;96.30;;;;;;5031651;28;20451;-82
2021/04/12 08:53:23;;;;;;;10.57;8.90;;;4.20;92.80;;;;;;5020785;28;20459;-82
2021/04/12 08:56:14;;;;;;;9.07;8.17;;;4.50;91.00;;;;;;5030460;28;20461;-81
2021/04/12 08:59:05;;;;;;;11.20;8.50;;;4.40;90.30;;;;;;5008013;28;20447;-83
2021/04/12 09:02:13;;;;;;;10.17;7.20;;;4.30;92.00;;;;;;5035998;28;20464;-82
2021/04/12 09:05:30;;;;;;;7.77;6.20;;;4.10;84.40;;;;;;5022408;28;20547;-83
2021/04/12 09:08:43;;;;;;;7.20;6.47;;;3.90;87.60;;;;;;5025998;28;20471;-82
2021/04/12 09:11:28;;;;;;;13.43;7.63;;;4.00;86.70;;;;;;4931512;29;20452;-82
2021/04/12 09:14:23;;;;;;;8.90;7.60;;;4.20;90.90;;;;;;5026565;28;20466;-81
2021/04/12 09:17:26;;;;;;;10.20;8.50;;;4.40;86.00;;;;;;5025766;28;20463;-82
2021/04/12 09:20:15;;;;;;;8.63;5.87;;;4.70;87.50;;;;;;5022760;28;20482;-88
2021/04/12 09:23:24;;;;;;;8.70;6.60;;;4.60;83.60;;;;;;5029632;28;20455;-87
2021/04/12 09:26:41;;;;;;;6.60;6.00;;;4.80;84.00;;;;;;5022863;28;20457;-84
2021/04/12 09:29:29;;;;;;;6.33;5.73;;;4.40;82.20;;;;;;5029450;28;20444;-87
2021/04/12 09:32:35;;;;;;;5.60;5.10;;;4.90;85.40;;;;;;5035323;28;20445;-85
2021/04/12 09:35:26;;;;;;;7.63;5.80;;;4.70;80.60;;;;;;5031581;28;20538;-82
2021/04/12 09:38:24;;;;;;;21.13;6.30;;;4.70;83.20;;;;;;5025358;28;20500;-84
2021/04/12 09:41:29;;;;;;;9.50;5.80;;;4.60;81.20;;;;;;5028330;28;20483;-82
2021/04/12 09:44:28;;;;;;;7.83;6.20;;;4.50;85.60;;;;;;5014447;28;21097;-81
2021/04/12 09:47:34;;;;;;;12.33;7.60;;;4.30;87.60;;;;;;5031638;28;20557;-86
2021/04/12 09:50:45;;;;;;;7.63;6.93;;;3.80;90.20;;;;;;5020361;28;20459;-81
2021/04/12 09:53:33;;;;;;;9.63;8.00;;;3.90;91.30;;;;;;5021378;28;20523;-79
2021/04/12 09:57:01;;;;;;;10.93;8.97;;;4.00;90.80;;;;;;5016659;28;20473;-80
2021/04/12 09:59:44;;;;;;;15.40;9.43;;;4.30;88.80;;;;;;5025667;28;20531;-82
2021/04/12 10:02:40;;;;;;;10.17;8.80;;;4.70;92.60;;;;;;5027503;28;20471;-84
2021/04/12 10:05:16;;;;;;;8.63;7.70;;;4.90;88.50;;;;;;5033233;28;20462;-88
2021/04/12 10:08:15;;;;;;;10.90;7.87;;;4.70;85.90;;;;;;5040893;28;20451;-83
2021/04/12 10:10:54;;;;;;;7.63;6.93;;;4.40;84.00;;;;;;5012346;28;20813;-86
2021/04/12 10:13:42;;;;;;;9.93;8.23;;;4.50;84.20;;;;;;5021630;28;20507;-83
2021/04/12 10:16:15;;;;;;;10.67;7.70;;;4.50;85.10;;;;;;5024789;28;20484;-84
2021/04/12 10:18:50;;;;;;;14.43;8.97;;;4.80;83.10;;;;;;5019025;28;20983;-84
2021/04/12 10:21:21;;;;;;;8.60;7.70;;;4.80;81.90;;;;;;5024085;28;20450;-81
2021/04/12 10:23:52;;;;;;;9.90;7.20;;;5.00;81.40;;;;;;5028754;28;20475;-87
2021/04/12 10:26:25;;;;;;;7.60;6.70;;;4.50;79.50;;;;;;5036121;28;20435;-83
2021/04/12 10:29:02;;;;;;;11.23;9.15;;;4.50;81.30;;;;;;5026922;28;20521;-83
2021/04/12 10:31:34;;;;;;;10.90;8.23;;;4.70;83.50;;;;;;5014508;28;20278;-84
2021/04/12 10:34:12;;;;;;;7.50;6.80;;;5.10;84.50;;;;;;5028315;28;20472;-83
2021/04/12 10:36:50;;;;;;;11.30;7.60;;;5.10;78.90;;;;;;5020579;28;20460;-87
2021/04/12 10:39:27;;;;;;;8.60;6.80;;;5.00;81.50;;;;;;5029376;28;20458;-86
2021/04/12 10:42:00;;;;;;;6.75;6.05;;;5.30;81.80;;;;;;5029678;28;20446;-84
2021/04/12 10:44:33;;;;;;;7.47;6.70;;;5.60;83.00;;;;;;5029522;28;20189;-86
2021/04/12 10:47:07;;;;;;;8.37;5.70;;;5.70;78.80;;;;;;5025967;28;20437;-82
2021/04/12 10:49:52;;;;;;;9.33;5.60;;;5.70;74.90;;;;;;5022154;28;20544;-83
2021/04/12 10:52:22;;;;;;;9.43;6.47;;;5.60;73.60;;;;;;5029156;28;20456;-89
2021/04/12 10:55:05;;;;;;;6.23;5.63;;;5.20;74.60;;;;;;5024787;28;20471;-82
2021/04/12 10:57:41;;;;;;;9.03;6.40;;;5.20;76.70;;;;;;5019748;28;20467;-81
2021/04/12 11:00:27;;;;;;;7.93;6.63;;;5.20;78.60;;;;;;5025874;28;20543;-81
2021/04/12 11:03:14;;;;;;;6.60;5.93;;;4.90;77.50;;;;;;4995964;28;20442;-81
2021/04/12 11:05:46;;;;;;;8.23;7.23;;;4.70;78.80;;;;;;5031680;28;20458;-82
2021/04/12 11:08:27;;;;;;;10.50;7.80;;;4.80;81.30;;;;;;5024085;28;20467;-81
2021/04/12 11:11:08;;;;;;;8.17;7.37;;;4.90;82.00;;;;;;5030744;28;20462;-83
2021/04/12 11:13:39;;;;;;;7.67;6.97;;;4.40;81.20;;;;;;5026601;28;20437;-84
2021/04/12 11:16:12;;;;;;;9.87;6.63;;;4.30;80.00;;;;;;5023310;28;20518;-84
2021/04/12 11:19:10;;;;;;;8.33;7.00;;;4.40;79.10;;;;;;5042403;28;20463;-84
2021/04/12 11:21:41;;;;;;;6.63;5.57;;;4.50;77.50;;;;;;5017842;28;20498;-84
2021/04/12 11:24:22;;;;;;;7.87;5.37;;;4.60;75.10;;;;;;5035875;28;20462;-84
2021/04/12 11:27:24;;;;;;;7.07;6.37;;;4.80;74.10;;;;;;5025160;28;20455;-83
2021/04/12 11:30:05;;;;;;;5.63;4.90;;;4.80;74.20;;;;;;4970175;28;20443;-84
2021/04/12 11:32:57;;;;;;;6.80;5.60;;;4.80;72.80;;;;;;5023282;28;20456;-84
2021/04/12 11:35:34;;;;;;;6.93;5.73;;;5.00;73.60;;;;;;5028390;28;20475;-84
2021/04/12 11:38:09;;;;;;;6.00;5.40;;;5.20;72.30;;;;;;5032273;28;20973;-85
2021/04/12 11:40:46;;;;;;;7.50;4.80;;;5.10;72.00;;;;;;5032481;28;20464;-84
2021/04/12 11:43:16;;;;;;;4.13;3.83;;;5.10;70.10;;;;;;5028140;28;20527;-84
2021/04/12 11:45:55;;;;;;;5.37;4.10;;;5.10;70.40;;;;;;5021230;28;20457;-85
2021/04/12 11:48:29;;;;;;;5.77;4.23;;;5.20;69.70;;;;;;5022612;28;20460;-83
2021/04/12 11:51:03;;;;;;;4.03;3.63;;;5.30;69.10;;;;;;5017188;28;20452;-85
2021/04/12 11:53:45;;;;;;;4.13;3.60;;;5.20;68.00;;;;;;5013821;28;20474;-84
2021/04/12 11:56:34;;;;;;;4.30;3.13;;;5.30;67.70;;;;;;5003942;28;20484;-85
2021/04/12 11:59:08;;;;;;;4.70;3.20;;;5.20;67.40;;;;;;5017484;28;20825;-82
2021/04/12 12:01:43;;;;;;;4.30;3.90;;;5.20;67.00;;;;;;5018160;28;20495;-85
2021/04/12 12:04:19;;;;;;;8.40;4.33;;;5.60;67.00;;;;;;5025548;28;20436;-84
2021/04/12 12:07:04;;;;;;;3.87;3.47;;;5.60;66.50;;;;;;5025931;28;20457;-86
2021/04/12 12:09:45;;;;;;;4.30;3.50;;;5.60;65.60;;;;;;5021272;28;20969;-84
2021/04/12 12:12:34;;;;;;;4.43;3.30;;;5.60;66.70;;;;;;5021186;28;20457;-84
2021/04/12 12:15:07;;;;;;;4.00;3.70;;;5.50;65.80;;;;;;5015025;28;20455;-82
2021/04/12 12:17:39;;;;;;;4.43;4.03;;;5.30;65.60;;;;;;5021960;28;20525;-80
2021/04/12 12:20:15;;;;;;;4.60;3.27;;;5.40;66.20;;;;;;5023231;28;20198;-81
2021/04/12 12:22:51;;;;;;;4.90;3.13;;;5.40;66.00;;;;;;5018593;28;20455;-80
2021/04/12 12:25:36;;;;;;;5.03;3.33;;;5.70;66.60;;;;;;5027607;28;20958;-81
2021/04/12 12:28:16;;;;;;;5.73;4.27;;;5.70;64.80;;;;;;5023150;28;20452;-80
2021/04/12 12:30:54;;;;;;;4.37;3.30;;;6.00;66.00;;;;;;5032063;28;20450;-80
2021/04/12 12:33:31;;;;;;;5.27;3.27;;;6.20;64.40;;;;;;5026834;28;20549;-80
2021/04/12 12:36:09;;;;;;;5.80;3.50;;;6.20;64.70;;;;;;5022344;28;20454;-82
2021/04/12 12:38:50;;;;;;;4.17;3.77;;;5.80;64.50;;;;;;5035340;28;20266;-80
2021/04/12 12:41:21;;;;;;;8.40;4.03;;;5.90;65.30;;;;;;5017480;28;20451;-81
2021/04/12 12:43:51;;;;;;;7.33;4.67;;;5.60;65.70;;;;;;5018811;28;20524;-79
2021/04/12 12:46:23;;;;;;;9.50;5.27;;;5.40;65.60;;;;;;5015737;28;20518;-80
2021/04/12 12:48:52;;;;;;;12.33;5.00;;;5.10;65.30;;;;;;5016722;28;20467;-80
2021/04/12 12:51:25;;;;;;;6.67;4.77;;;5.10;66.10;;;;;;5020720;28;20475;-80
2021/04/12 12:54:01;;;;;;;10.40;4.88;;;5.30;66.70;;;;;;5020013;28;20462;-78
2021/04/12 12:56:34;;;;;;;9.70;5.03;;;5.60;66.50;;;;;;5021598;28;20622;-80
2021/04/12 12:59:04;;;;;;;7.87;4.10;;;5.80;66.50;;;;;;5020588;28;20467;-80
2021/04/12 13:01:34;;;;;;;8.47;5.30;;;5.80;64.70;;;;;;5022514;28;20454;-80
2021/04/12 13:04:11;;;;;;;5.20;4.53;;;5.80;66.00;;;;;;5021546;28;20454;-82
2021/04/12 13:06:38;;;;;;;6.93;4.63;;;5.90;65.50;;;;;;5023152;28;20454;-80
2021/04/12 13:09:26;;;;;;;11.37;5.27;;;6.00;65.60;;;;;;5018107;28;20471;-79
2021/04/12 13:11:56;;;;;;;7.80;4.47;;;6.20;64.90;;;;;;5023090;28;20457;-77
2021/04/12 13:14:37;;;;;;;4.30;3.00;;;5.80;63.20;;;;;;5016999;28;20544;-78
2021/04/12 13:17:24;;;;;;;4.73;2.97;;;5.80;60.80;;;;;;5013285;28;20459;-79
2021/04/12 13:19:55;;;;;;;5.70;3.10;;;5.70;59.20;;;;;;5025102;28;20687;-78
2021/04/12 13:22:26;;;;;;;10.83;4.30;;;5.60;58.30;;;;;;5011896;28;20831;-77
2021/04/12 13:24:53;;;;;;;3.20;2.90;;;5.90;59.10;;;;;;5035099;28;20455;-78
2021/04/12 13:27:24;;;;;;;2.90;2.60;;;5.90;58.10;;;;;;5029261;28;20458;-79
2021/04/12 13:29:53;;;;;;;4.27;2.67;;;6.10;56.70;;;;;;5018611;28;20226;-78
2021/04/12 13:32:24;;;;;;;3.50;3.00;;;6.30;56.50;;;;;;5003174;28;20542;-78
2021/04/12 13:34:58;;;;;;;5.30;2.88;;;6.60;57.20;;;;;;5013616;28;20506;-78
2021/04/12 13:37:26;;;;;;;4.63;2.30;;;7.00;57.10;;;;;;5033884;28;20688;-79
2021/04/12 13:40:00;;;;;;;5.57;2.70;;;7.00;55.00;;;;;;5021172;28;20478;-79
2021/04/12 13:42:31;;;;;;;5.33;3.03;;;7.10;53.40;;;;;;5031573;28;20325;-79
2021/04/12 13:45:00;;;;;;;2.23;2.03;;;6.60;53.50;;;;;;5026376;28;20492;-81
2021/04/12 13:47:34;;;;;;;3.23;2.07;;;6.70;52.40;;;;;;5030191;28;20453;-79
2021/04/12 13:50:09;;;;;;;4.10;2.37;;;6.60;51.80;;;;;;5029899;28;20468;-79
2021/04/12 13:52:43;;;;;;;2.60;2.30;;;6.50;51.30;;;;;;5028950;28;20456;-79
2021/04/12 13:55:14;;;;;;;2.37;2.17;;;6.30;52.00;;;;;;5029557;28;20488;-82
2021/04/12 13:57:45;;;;;;;4.20;2.40;;;6.50;53.00;;;;;;5048131;28;20447;-82
2021/04/12 14:00:21;;;;;;;4.63;2.80;;;6.30;52.90;;;;;;5009241;28;20211;-81
2021/04/12 14:02:58;;;;;;;7.50;2.90;;;6.00;53.50;;;;;;5028877;28;20494;-81
2021/04/12 14:05:28;;;;;;;4.70;2.37;;;6.40;53.30;;;;;;5025871;28;20473;-84
2021/04/12 14:08:10;;;;;;;4.17;2.60;;;6.60;52.60;;;;;;5022196;28;20461;-80
2021/04/12 14:10:44;;;;;;;2.73;2.27;;;6.60;52.00;;;;;;5031618;28;20468;-86
2021/04/12 14:13:17;;;;;;;7.77;2.87;;;6.20;51.80;;;;;;5013515;28;20498;-79
2021/04/12 14:15:52;;;;;;;2.70;2.50;;;6.00;52.20;;;;;;5016135;28;20504;-78
2021/04/12 14:18:29;;;;;;;2.80;2.20;;;6.30;51.40;;;;;;5019446;28;20439;-79
2021/04/12 14:21:07;;;;;;;3.40;2.90;;;6.20;51.90;;;;;;5021540;28;20457;-79
2021/04/12 14:23:42;;;;;;;7.73;2.70;;;6.40;52.30;;;;;;5022223;28;20490;-77
2021/04/12 14:26:13;;;;;;;2.60;2.40;;;6.50;52.20;;;;;;5017780;28;20905;-77
2021/04/12 14:28:46;;;;;;;2.53;2.30;;;6.60;51.60;;;;;;5018945;28;20439;-77
2021/04/12 14:31:23;;;;;;;8.30;2.40;;;6.80;52.60;;;;;;5011947;28;20468;-79
2021/04/12 14:33:54;;;;;;;6.20;2.73;;;6.70;53.10;;;;;;5022649;28;20930;-78
2021/04/12 14:36:24;;;;;;;7.20;3.10;;;6.80;53.70;;;;;;5017254;28;20860;-80
2021/04/12 14:39:02;;;;;;;5.82;2.92;;;7.10;52.90;;;;;;5030305;28;20450;-79
2021/04/12 14:41:33;;;;;;;3.93;2.53;;;7.20;52.30;;;;;;5018105;28;20205;-82
2021/04/12 14:44:03;;;;;;;3.23;2.60;;;7.00;52.70;;;;;;5021742;28;20464;-80
2021/04/12 14:46:34;;;;;;;5.07;2.85;;;6.50;52.00;;;;;;5015595;28;20454;-79
2021/04/12 14:49:03;;;;;;;3.10;2.50;;;7.30;52.20;;;;;;5026618;28;20196;-80
2021/04/12 14:51:33;;;;;;;3.37;2.60;;;7.50;51.70;;;;;;5018557;28;20556;-80
2021/04/12 14:54:08;;;;;;;3.83;2.60;;;7.90;51.40;;;;;;5017765;28;20438;-80
2021/04/12 14:56:44;;;;;;;3.43;2.00;;;7.60;50.20;;;;;;5010355;28;20477;-81
2021/04/12 14:59:14;;;;;;;1.93;1.70;;;7.30;50.50;;;;;;5023592;28;20492;-85
2021/04/12 15:01:44;;;;;;;4.30;1.87;;;7.50;49.60;;;;;;5032294;28;20526;-82
2021/04/12 15:04:15;;;;;;;2.20;2.00;;;7.60;49.90;;;;;;5034297;28;20558;-80
2021/04/12 15:06:48;;;;;;;7.63;3.53;;;8.00;48.80;;;;;;5023029;28;20505;-82
2021/04/12 15:09:17;;;;;;;5.30;2.37;;;7.70;48.80;;;;;;5030354;28;20526;-88
2021/04/12 15:11:49;;;;;;;2.27;2.07;;;7.70;48.00;;;;;;5028572;28;20444;-83
2021/04/12 15:14:21;;;;;;;4.40;2.10;;;7.70;48.00;;;;;;5032978;28;20585;-79
2021/04/12 15:16:52;;;;;;;12.77;2.93;;;7.50;47.30;;;;;;5028141;28;20498;-79
2021/04/12 15:19:25;;;;;;;2.33;2.13;;;7.40;47.60;;;;;;5030934;28;20452;-78
2021/04/12 15:21:56;;;;;;;4.40;2.30;;;7.30;48.20;;;;;;5008758;28;20495;-79
2021/04/12 15:24:27;;;;;;;5.97;3.13;;;7.00;48.00;;;;;;5019763;28;20471;-79
2021/04/12 15:26:58;;;;;;;3.53;2.80;;;7.00;48.30;;;;;;5030473;28;20470;-79
2021/04/12 15:29:37;;;;;;;3.57;2.40;;;7.10;48.00;;;;;;5035189;28;20469;-82
2021/04/12 15:32:16;;;;;;;2.00;1.80;;;7.20;47.90;;;;;;5034104;28;20488;-89
2021/04/12 15:34:46;;;;;;;2.57;1.80;;;7.20;47.70;;;;;;5032398;28;21028;-81
2021/04/12 15:37:27;;;;;;;4.03;2.50;;;7.50;48.00;;;;;;5025936;28;20504;-80
2021/04/12 15:40:05;;;;;;;4.43;2.60;;;8.00;47.80;;;;;;5020758;28;20458;-80
2021/04/12 15:42:36;;;;;;;6.60;2.90;;;7.70;46.80;;;;;;5012011;28;20827;-80
2021/04/12 15:45:07;;;;;;;7.63;3.57;;;7.40;47.20;;;;;;5025057;28;20989;-81
2021/04/12 15:47:35;;;;;;;4.43;2.10;;;7.30;47.50;;;;;;5022483;28;20465;-79
2021/04/12 15:50:07;;;;;;;2.93;2.10;;;7.00;48.00;;;;;;5024989;28;20488;-81
2021/04/12 15:52:39;;;;;;;4.53;2.23;;;6.90;47.60;;;;;;5023542;28;20450;-80
2021/04/12 15:55:13;;;;;;;4.10;2.90;;;7.40;47.50;;;;;;5026780;28;20999;-80
2021/04/12 15:57:42;;;;;;;28.30;5.03;;;7.50;47.00;;;;;;5020156;28;20451;-80
2021/04/12 16:00:19;;;;;;;4.40;2.73;;;7.80;47.50;;;;;;5021408;28;20522;-81
2021/04/12 16:02:51;;;;;;;2.77;2.00;;;7.60;47.00;;;;;;5024205;28;20441;-80
2021/04/12 16:05:22;;;;;;;3.07;2.17;;;7.10;47.10;;;;;;5016533;28;20545;-81
2021/04/12 16:07:54;;;;;;;2.60;2.30;;;7.40;47.70;;;;;;5036192;28;20565;-81
2021/04/12 16:10:26;;;;;;;2.70;2.10;;;7.70;47.30;;;;;;5017272;28;20559;-81
2021/04/12 16:13:00;;;;;;;3.80;2.20;;;7.70;47.30;;;;;;5014182;28;20574;-81
2021/04/12 16:15:29;;;;;;;4.07;2.27;;;7.70;47.60;;;;;;5024093;28;20504;-83
2021/04/12 16:18:01;;;;;;;2.17;1.97;;;7.70;47.00;;;;;;5016121;28;20557;-80
2021/04/12 16:20:32;;;;;;;4.57;3.10;;;7.40;47.00;;;;;;5018876;28;20807;-80
2021/04/12 16:23:02;;;;;;;13.33;3.30;;;7.30;47.70;;;;;;5018559;28;20495;-80
2021/04/12 16:25:33;;;;;;;2.30;2.07;;;7.40;47.80;;;;;;5026138;28;20956;-81
2021/04/12 16:28:06;;;;;;;4.10;2.20;;;7.40;47.10;;;;;;5024448;28;20451;-83
2021/04/12 16:30:39;;;;;;;2.67;2.30;;;7.50;47.10;;;;;;5032029;28;20446;-83
2021/04/12 16:33:09;;;;;;;5.90;3.03;;;7.50;46.70;;;;;;5034183;28;20453;-80
2021/04/12 16:35:37;;;;;;;2.30;2.10;;;7.40;47.00;;;;;;5028745;28;20478;-79
2021/04/12 16:38:17;;;;;;;2.23;2.03;;;7.40;46.50;;;;;;5028189;28;20470;-80
2021/04/12 16:41:02;;;;;;;3.23;2.43;;;7.40;46.60;;;;;;5024550;28;20455;-83
2021/04/12 16:43:35;;;;;;;3.47;2.07;;;7.10;46.30;;;;;;5026042;28;20537;-83
2021/04/12 16:46:06;;;;;;;2.87;2.67;;;6.90;46.30;;;;;;5035428;28;20456;-81
2021/04/12 16:48:37;;;;;;;4.23;2.33;;;6.70;46.30;;;;;;5024967;28;20552;-80
2021/04/12 16:51:11;;;;;;;3.40;2.43;;;6.70;46.40;;;;;;5016289;28;20472;-80
2021/04/12 16:53:47;;;;;;;5.30;2.60;;;6.60;46.40;;;;;;5021276;28;20465;-80
2021/04/12 16:56:24;;;;;;;2.73;2.10;;;6.70;46.80;;;;;;5026537;28;20476;-82
2021/04/12 16:58:57;;;;;;;3.47;2.27;;;6.80;46.90;;;;;;5021896;28;20483;-81
2021/04/12 17:01:35;;;;;;;4.70;2.27;;;6.60;46.80;;;;;;5031330;28;20517;-81
2021/04/12 17:04:06;;;;;;;4.00;2.40;;;6.60;47.30;;;;;;5036767;28;20561;-83
2021/04/12 17:06:39;;;;;;;3.80;2.03;;;6.60;46.80;;;;;;5037836;28;20437;-87
2021/04/12 17:09:16;;;;;;;3.97;2.50;;;6.50;46.90;;;;;;5027949;28;20454;-80
2021/04/12 17:11:51;;;;;;;2.90;2.60;;;6.60;46.60;;;;;;5016567;28;20585;-80
2021/04/12 17:14:22;;;;;;;4.70;2.30;;;6.70;46.50;;;;;;5023226;28;20944;-80
2021/04/12 17:16:51;;;;;;;5.50;2.53;;;6.50;46.60;;;;;;5020429;28;20525;-80
2021/04/12 17:19:23;;;;;;;3.70;2.10;;;6.60;46.90;;;;;;5032107;28;20498;-83
2021/04/12 17:22:04;;;;;;;8.10;3.00;;;8.20;46.50;;;;;;5034752;28;20469;-83
2021/04/12 17:24:34;;;;;;;2.20;2.10;;;9.50;45.10;;;;;;5023606;28;20476;-80
2021/04/12 17:27:17;;;;;;;3.93;2.40;;;10.30;42.90;;;;;;5020997;28;20529;-79
2021/04/12 17:29:55;;;;;;;5.67;2.27;;;10.20;42.30;;;;;;5018266;28;20448;-87
2021/04/12 17:32:27;;;;;;;4.90;3.27;;;10.40;42.30;;;;;;5033678;28;20458;-81
2021/04/12 17:35:01;;;;;;;4.23;3.37;;;9.80;43.10;;;;;;5031260;28;20452;-82
2021/04/12 17:37:32;;;;;;;3.27;2.73;;;8.90;43.50;;;;;;5031897;28;20534;-79
2021/04/12 17:40:07;;;;;;;2.30;2.10;;;8.10;44.40;;;;;;5019352;28;20451;-79
2021/04/12 17:42:35;;;;;;;1.90;1.80;;;7.30;44.90;;;;;;5033302;28;20979;-82
2021/04/12 17:45:07;;;;;;;2.43;2.07;;;6.80;45.00;;;;;;5023301;28;20554;-80
2021/04/12 17:47:42;;;;;;;2.50;2.30;;;6.60;45.30;;;;;;5032300;28;20444;-81
2021/04/12 17:50:15;;;;;;;5.53;2.90;;;6.30;45.80;;;;;;5016488;28;20538;-84
2021/04/12 17:52:43;;;;;;;2.97;2.40;;;6.30;46.30;;;;;;5019780;28;20446;-80
2021/04/12 17:55:18;;;;;;;6.40;4.33;;;6.30;46.70;;;;;;5017756;28;20559;-81
2021/04/12 17:57:49;;;;;;;3.10;2.50;;;6.30;47.10;;;;;;5027042;28;20476;-79
2021/04/12 18:00:24;;;;;;;2.77;2.57;;;6.20;46.20;;;;;;5022224;28;20480;-79
2021/04/12 18:02:58;;;;;;;5.37;3.37;;;6.00;46.60;;;;;;5021071;28;20470;-81
2021/04/12 18:05:28;;;;;;;3.27;2.97;;;5.90;47.00;;;;;;5019791;28;20455;-80
2021/04/12 18:08:06;;;;;;;5.33;2.57;;;5.80;47.00;;;;;;5020701;28;20831;-82
2021/04/12 18:10:39;;;;;;;2.20;2.00;;;5.80;47.00;;;;;;5022507;28;20498;-80
2021/04/12 18:13:09;;;;;;;5.63;2.30;;;5.80;46.50;;;;;;5019439;28;20457;-86
2021/04/12 18:15:42;;;;;;;3.23;2.20;;;5.70;46.60;;;;;;5019894;28;21019;-85
2021/04/12 18:18:15;;;;;;;3.33;2.07;;;5.50;46.80;;;;;;5040142;28;20476;-89
2021/04/12 18:20:46;;;;;;;2.20;2.00;;;5.50;47.20;;;;;;5047935;28;20453;-83
2021/04/12 18:23:23;;;;;;;8.03;3.30;;;5.30;47.40;;;;;;5026696;28;20463;-84